Time;durP1;ratioP1;P1;durP2;ratioP2;P2;SDS_P1;SDS_P2;PMS_P1;PMS_P2;Temp;Humidity;BMP_temperature;BMP_pressure;BME280_temperature;BME280_humidity;BME280_pressure;Samples;Min_cycle;Max_cycle;Signal;HPM_P1;HPM_P2
2022/11/27 00:00:00;;;;;;;21.80;8.82;;;6.80;99.90;;;;;;5046488;28;20132;-60
2022/11/27 00:02:26;;;;;;;23.42;8.32;;;6.70;99.90;;;;;;5049725;28;20040;-61
2022/11/27 00:04:52;;;;;;;19.80;7.47;;;6.70;99.90;;;;;;5030001;28;20044;-62
2022/11/27 00:07:17;;;;;;;21.55;7.60;;;6.70;99.90;;;;;;5041616;28;20037;-61
2022/11/27 00:09:43;;;;;;;27.27;8.23;;;6.70;99.90;;;;;;5043702;28;20454;-61
2022/11/27 00:12:09;;;;;;;22.60;8.25;;;6.70;99.90;;;;;;5047972;28;20036;-62
2022/11/27 00:14:35;;;;;;;23.05;8.07;;;6.70;99.90;;;;;;5047630;28;20037;-63
2022/11/27 00:17:00;;;;;;;21.95;7.82;;;6.70;99.90;;;;;;5031608;28;20052;-62
2022/11/27 00:19:26;;;;;;;23.85;9.07;;;6.70;99.90;;;;;;5043115;28;20060;-63
2022/11/27 00:21:52;;;;;;;24.60;7.45;;;6.60;99.90;;;;;;5044596;28;20124;-62
2022/11/27 00:24:17;;;;;;;22.55;7.60;;;6.70;99.90;;;;;;5045176;28;20025;-61
2022/11/27 00:26:45;;;;;;;20.67;7.50;;;6.60;99.90;;;;;;5047948;28;20069;-61
2022/11/27 00:29:11;;;;;;;25.90;8.20;;;6.60;99.90;;;;;;5046538;28;20032;-62
2022/11/27 00:31:37;;;;;;;26.33;7.13;;;6.60;99.90;;;;;;5045285;28;20442;-61
2022/11/27 00:34:04;;;;;;;23.90;7.90;;;6.70;99.90;;;;;;5046281;28;20155;-60
2022/11/27 00:36:32;;;;;;;24.15;9.13;;;6.60;99.90;;;;;;5047836;28;20116;-62
2022/11/27 00:38:58;;;;;;;24.35;7.53;;;6.70;99.90;;;;;;5037717;28;20040;-62
2022/11/27 00:41:26;;;;;;;23.73;7.88;;;6.60;99.90;;;;;;5043659;28;20515;-62
2022/11/27 00:43:53;;;;;;;18.88;6.95;;;6.60;99.90;;;;;;5054117;28;20098;-62
2022/11/27 00:46:22;;;;;;;21.85;7.72;;;6.60;99.90;;;;;;5046131;28;20075;-61
2022/11/27 00:48:48;;;;;;;27.50;7.65;;;6.50;99.90;;;;;;5047619;28;20033;-61
2022/11/27 00:51:16;;;;;;;23.50;8.05;;;6.50;99.90;;;;;;5043225;28;20518;-61
2022/11/27 00:53:42;;;;;;;20.85;7.10;;;6.50;99.90;;;;;;5049134;28;20048;-60
2022/11/27 00:56:13;;;;;;;20.25;6.95;;;6.50;99.90;;;;;;5042113;28;20060;-60
2022/11/27 00:58:38;;;;;;;28.08;8.43;;;6.50;99.90;;;;;;5044962;28;20048;-62
2022/11/27 01:01:06;;;;;;;25.10;7.95;;;6.50;99.90;;;;;;5049141;28;20037;-61
2022/11/27 01:03:32;;;;;;;24.33;7.97;;;6.50;99.90;;;;;;5050220;28;20434;-61
2022/11/27 01:06:06;;;;;;;22.92;7.40;;;6.50;99.90;;;;;;5041551;28;20499;-63
2022/11/27 01:08:33;;;;;;;20.80;7.70;;;6.50;99.90;;;;;;5043713;28;20052;-62
2022/11/27 01:10:59;;;;;;;22.13;7.60;;;6.40;99.90;;;;;;5043954;28;20049;-60
2022/11/27 01:13:28;;;;;;;29.50;7.97;;;6.40;99.90;;;;;;5041122;28;20036;-63
2022/11/27 01:16:24;;;;;;;27.95;8.43;;;6.50;99.90;;;;;;5043931;28;20099;-62
2022/11/27 01:18:52;;;;;;;20.85;6.70;;;6.40;99.90;;;;;;5019488;28;20085;-62
2022/11/27 01:21:20;;;;;;;18.63;7.00;;;6.40;99.90;;;;;;5042660;28;20049;-61
2022/11/27 01:23:47;;;;;;;22.58;7.20;;;6.40;99.90;;;;;;5040647;28;20060;-61
2022/11/27 01:26:14;;;;;;;19.02;7.18;;;6.40;99.90;;;;;;5042735;28;20123;-62
2022/11/27 01:28:40;;;;;;;21.75;6.88;;;6.40;99.90;;;;;;5044836;28;20047;-62
2022/11/27 01:31:10;;;;;;;19.65;6.78;;;6.40;99.90;;;;;;5026292;28;20037;-62
2022/11/27 01:33:36;;;;;;;22.85;6.90;;;6.40;99.90;;;;;;5039787;28;20403;-61
2022/11/27 01:36:03;;;;;;;20.15;6.63;;;6.40;99.90;;;;;;5035490;28;20037;-61
2022/11/27 01:38:30;;;;;;;22.52;7.60;;;6.50;99.90;;;;;;5049008;28;20051;-62
2022/11/27 01:41:18;;;;;;;18.27;7.13;;;6.40;99.90;;;;;;5020408;28;20402;-62
2022/11/27 01:43:48;;;;;;;17.35;7.05;;;6.40;99.90;;;;;;5038725;28;20114;-61
2022/11/27 01:46:26;;;;;;;23.75;7.70;;;6.40;99.90;;;;;;5045200;28;20060;-61
2022/11/27 01:48:58;;;;;;;19.33;6.57;;;6.40;99.90;;;;;;5029648;28;20044;-62
2022/11/27 01:51:24;;;;;;;25.08;7.13;;;6.40;99.90;;;;;;5042896;28;20049;-62
2022/11/27 01:53:51;;;;;;;19.10;7.47;;;6.40;99.90;;;;;;5033578;28;20062;-60
2022/11/27 01:56:18;;;;;;;21.73;7.10;;;6.40;99.90;;;;;;5041707;28;20044;-61
2022/11/27 01:58:44;;;;;;;21.15;7.03;;;6.40;99.90;;;;;;5041143;28;20060;-61
2022/11/27 02:03:44;;;;;;;20.25;6.72;;;6.40;99.90;;;;;;5029099;28;20080;-59
2022/11/27 02:06:12;;;;;;;14.70;5.93;;;6.50;99.90;;;;;;5036191;28;20041;-63
2022/11/27 02:08:39;;;;;;;23.20;6.57;;;6.40;99.90;;;;;;5037412;28;20120;-60
2022/11/27 02:11:10;;;;;;;22.45;7.82;;;6.40;99.90;;;;;;5038588;28;20186;-61
2022/11/27 02:14:15;;;;;;;20.10;6.78;;;6.50;99.90;;;;;;5040700;28;20037;-57
2022/11/27 02:16:54;;;;;;;17.23;6.72;;;6.50;99.90;;;;;;5043512;28;20756;-60
2022/11/27 02:19:49;;;;;;;19.08;6.72;;;6.50;99.90;;;;;;5035711;28;21052;-61
2022/11/27 02:22:33;;;;;;;17.45;6.60;;;6.50;99.90;;;;;;5037283;28;20055;-61
2022/11/27 02:25:25;;;;;;;17.98;6.70;;;6.50;99.90;;;;;;5037334;28;20522;-60
2022/11/27 02:28:22;;;;;;;18.60;6.72;;;6.50;99.90;;;;;;5039625;28;20033;-63
2022/11/27 02:30:55;;;;;;;23.23;6.65;;;6.50;99.90;;;;;;5042752;28;20459;-58
2022/11/27 02:33:22;;;;;;;18.85;6.07;;;6.50;99.90;;;;;;5027635;28;20037;-58
2022/11/27 02:35:54;;;;;;;16.75;7.78;;;6.50;99.90;;;;;;5040853;28;20134;-60
2022/11/27 02:38:28;;;;;;;18.60;6.38;;;6.50;99.90;;;;;;5039700;28;20033;-62
2022/11/27 02:41:03;;;;;;;21.15;6.95;;;6.50;99.90;;;;;;5042465;28;21274;-60
2022/11/27 02:43:39;;;;;;;18.55;6.68;;;6.50;99.90;;;;;;5043541;28;20037;-62
2022/11/27 02:46:08;;;;;;;18.67;6.07;;;6.50;99.90;;;;;;5036882;28;20045;-57
2022/11/27 02:48:40;;;;;;;16.80;6.50;;;6.50;99.90;;;;;;5043811;28;20037;-60
2022/11/27 02:51:07;;;;;;;17.90;6.70;;;6.50;99.90;;;;;;5039729;28;20068;-61
2022/11/27 02:53:37;;;;;;;17.90;6.95;;;6.50;99.90;;;;;;5042946;28;20041;-62
2022/11/27 02:56:10;;;;;;;18.58;6.65;;;6.50;99.90;;;;;;5043854;28;20059;-62
2022/11/27 02:58:37;;;;;;;15.50;6.47;;;6.50;99.90;;;;;;5039817;28;20125;-60
2022/11/27 03:01:05;;;;;;;18.40;6.47;;;6.50;99.90;;;;;;5041636;28;20072;-61
2022/11/27 03:03:39;;;;;;;16.92;6.60;;;6.60;99.90;;;;;;5034763;28;20476;-58
2022/11/27 03:06:12;;;;;;;15.43;6.93;;;6.50;99.90;;;;;;5043576;28;20044;-59
2022/11/27 03:08:42;;;;;;;19.08;6.53;;;6.50;99.90;;;;;;5043076;28;20107;-61
2022/11/27 03:11:11;;;;;;;15.45;6.32;;;6.60;99.90;;;;;;5040296;28;20118;-60
2022/11/27 03:13:57;;;;;;;16.73;5.80;;;6.50;99.90;;;;;;5044427;28;20499;-60
2022/11/27 03:16:23;;;;;;;18.63;6.60;;;6.50;99.90;;;;;;5040934;28;20112;-60
2022/11/27 03:18:55;;;;;;;16.02;6.40;;;6.50;99.90;;;;;;5035254;28;20124;-63
2022/11/27 03:21:54;;;;;;;17.77;6.47;;;6.60;99.90;;;;;;5037910;28;20548;-61
2022/11/27 03:24:19;;;;;;;16.77;6.43;;;6.60;99.90;;;;;;5018142;28;20500;-61
2022/11/27 03:26:46;;;;;;;19.38;6.45;;;6.50;99.90;;;;;;5037022;28;20039;-62
2022/11/27 03:29:18;;;;;;;13.85;5.75;;;6.50;99.90;;;;;;5037526;28;20060;-62
2022/11/27 03:31:44;;;;;;;11.50;6.75;;;6.60;99.90;;;;;;5041607;28;20049;-61
2022/11/27 03:34:10;;;;;;;17.98;6.97;;;6.50;99.90;;;;;;5040705;28;20549;-61
2022/11/27 03:36:36;;;;;;;14.95;6.22;;;6.50;99.90;;;;;;5043885;28;20045;-62
2022/11/27 03:39:03;;;;;;;12.98;6.13;;;6.60;99.90;;;;;;5042725;28;20287;-60
2022/11/27 03:41:31;;;;;;;19.23;6.57;;;6.50;99.90;;;;;;5033457;28;20079;-62
2022/11/27 03:44:12;;;;;;;18.88;7.40;;;6.50;99.90;;;;;;5033172;28;20065;-60
2022/11/27 03:46:50;;;;;;;15.02;6.93;;;6.50;99.90;;;;;;5036072;28;21250;-59
2022/11/27 03:49:36;;;;;;;16.08;6.57;;;6.50;99.90;;;;;;5034680;28;20052;-60
2022/11/27 03:52:19;;;;;;;13.85;6.95;;;6.50;99.90;;;;;;5032492;28;20052;-61
2022/11/27 03:55:09;;;;;;;18.65;6.93;;;6.50;99.90;;;;;;5038111;28;20037;-59
2022/11/27 03:57:59;;;;;;;11.98;6.20;;;6.50;99.90;;;;;;5039309;28;20044;-59
2022/11/27 04:00:30;;;;;;;16.27;7.95;;;6.50;99.90;;;;;;5038139;28;20041;-61
2022/11/27 04:02:56;;;;;;;17.08;6.93;;;6.50;99.90;;;;;;5039455;28;20033;-60
2022/11/27 04:05:22;;;;;;;20.88;7.90;;;6.50;99.90;;;;;;5039251;28;20039;-63
2022/11/27 04:07:47;;;;;;;16.67;7.38;;;6.40;99.90;;;;;;5021172;28;20038;-62
2022/11/27 04:10:13;;;;;;;12.93;8.05;;;6.50;99.90;;;;;;5041866;28;20476;-59
2022/11/27 04:12:39;;;;;;;15.23;6.68;;;6.50;99.90;;;;;;5040569;28;20338;-60
2022/11/27 04:15:06;;;;;;;19.33;8.18;;;6.40;99.90;;;;;;5042283;28;20124;-61
2022/11/27 04:17:32;;;;;;;16.70;6.63;;;6.50;99.90;;;;;;5043270;28;20064;-61
2022/11/27 04:19:57;;;;;;;17.27;7.63;;;6.40;99.90;;;;;;5038051;28;20462;-61
2022/11/27 04:22:23;;;;;;;13.90;6.53;;;6.40;99.90;;;;;;5040509;28;20040;-62
2022/11/27 04:24:49;;;;;;;19.42;7.05;;;6.40;99.90;;;;;;5032327;28;20225;-60
2022/11/27 04:27:15;;;;;;;15.10;7.63;;;6.40;99.90;;;;;;5041417;28;20037;-60
2022/11/27 04:29:41;;;;;;;13.85;6.45;;;6.50;99.90;;;;;;5043605;28;20033;-59
2022/11/27 04:32:06;;;;;;;15.77;7.18;;;6.40;99.90;;;;;;5028337;28;20152;-61
2022/11/27 04:34:32;;;;;;;15.80;7.22;;;6.40;99.90;;;;;;5029656;28;20071;-61
2022/11/27 04:36:58;;;;;;;19.33;7.53;;;6.40;99.90;;;;;;5039846;28;20507;-60
2022/11/27 04:39:24;;;;;;;15.18;7.22;;;6.40;99.90;;;;;;5042922;28;20055;-58
2022/11/27 04:41:49;;;;;;;17.95;7.10;;;6.40;99.90;;;;;;5045097;28;20037;-59
2022/11/27 04:44:16;;;;;;;27.15;10.13;;;6.40;99.90;;;;;;5047859;28;20033;-60
2022/11/27 04:46:41;;;;;;;17.33;7.40;;;6.40;99.90;;;;;;5046201;28;20056;-62
2022/11/27 04:49:08;;;;;;;18.05;6.50;;;6.40;99.90;;;;;;5039817;28;20064;-60
2022/11/27 04:51:34;;;;;;;19.30;7.55;;;6.40;99.90;;;;;;5044334;28;20041;-58
2022/11/27 04:54:00;;;;;;;15.60;6.55;;;6.40;99.90;;;;;;5044454;28;20045;-60
2022/11/27 04:56:26;;;;;;;17.38;6.90;;;6.40;99.90;;;;;;5045803;28;20066;-60
2022/11/27 04:58:51;;;;;;;17.98;6.85;;;6.40;99.90;;;;;;5036504;28;20038;-61
2022/11/27 05:01:17;;;;;;;14.68;6.07;;;6.40;99.90;;;;;;5043936;28;20037;-60
2022/11/27 05:03:43;;;;;;;17.63;6.53;;;6.40;99.90;;;;;;5039592;28;20040;-60
2022/11/27 05:06:09;;;;;;;15.02;6.57;;;6.40;99.90;;;;;;5038336;28;20095;-60
2022/11/27 05:08:34;;;;;;;16.55;6.97;;;6.40;99.90;;;;;;5036612;28;20496;-63
2022/11/27 05:11:14;;;;;;;12.93;6.18;;;6.40;99.90;;;;;;5041937;28;20051;-63
2022/11/27 05:13:40;;;;;;;19.08;7.28;;;6.40;99.90;;;;;;5045722;28;20063;-61
2022/11/27 05:16:06;;;;;;;18.15;7.28;;;6.40;99.90;;;;;;5046497;28;20041;-59
2022/11/27 05:18:33;;;;;;;15.02;5.85;;;6.40;99.90;;;;;;5038668;28;20060;-60
2022/11/27 05:21:01;;;;;;;16.63;6.22;;;6.40;99.90;;;;;;5041343;28;20049;-59
2022/11/27 05:23:27;;;;;;;14.13;6.03;;;6.40;99.90;;;;;;5038043;28;20029;-61
2022/11/27 05:25:53;;;;;;;16.10;6.88;;;6.50;99.90;;;;;;5035815;28;20115;-63
2022/11/27 05:28:20;;;;;;;19.90;7.65;;;6.40;99.90;;;;;;5042828;28;20265;-62
2022/11/27 05:30:46;;;;;;;16.45;5.53;;;6.40;99.90;;;;;;5046366;28;20040;-60
2022/11/27 05:33:13;;;;;;;17.67;6.68;;;6.40;99.90;;;;;;5039605;28;20045;-61
2022/11/27 05:35:39;;;;;;;17.58;5.93;;;6.40;99.90;;;;;;5038494;28;20057;-58
2022/11/27 05:38:05;;;;;;;15.63;5.50;;;6.40;99.90;;;;;;5030511;28;20055;-61
2022/11/27 05:40:30;;;;;;;12.38;5.85;;;6.50;99.90;;;;;;5033665;28;20388;-62
2022/11/27 05:42:56;;;;;;;14.68;5.95;;;6.40;99.90;;;;;;5033594;28;20072;-59
2022/11/27 05:45:22;;;;;;;17.83;7.43;;;6.40;99.90;;;;;;5017346;28;20145;-59
2022/11/27 05:47:47;;;;;;;14.55;5.75;;;6.40;99.90;;;;;;5034687;28;20662;-59
2022/11/27 05:50:13;;;;;;;14.23;5.93;;;6.40;99.90;;;;;;5040772;28;20703;-61
2022/11/27 05:52:39;;;;;;;13.63;6.13;;;6.40;99.90;;;;;;5040991;28;20086;-61
2022/11/27 05:55:05;;;;;;;16.95;5.63;;;6.50;99.90;;;;;;5037909;28;20037;-61
2022/11/27 05:57:31;;;;;;;14.15;6.03;;;6.40;99.90;;;;;;5041705;28;20033;-61
2022/11/27 05:59:57;;;;;;;15.05;5.38;;;6.50;99.90;;;;;;5038902;28;20381;-60
2022/11/27 06:02:24;;;;;;;14.18;5.70;;;6.50;99.90;;;;;;5042422;28;20261;-60
2022/11/27 06:04:50;;;;;;;12.07;5.35;;;6.50;99.90;;;;;;5037555;28;20041;-62
2022/11/27 06:07:16;;;;;;;18.15;5.07;;;6.50;99.90;;;;;;5042217;28;20037;-59
2022/11/27 06:09:42;;;;;;;12.75;5.05;;;6.50;99.90;;;;;;5042556;28;20025;-60
2022/11/27 06:12:07;;;;;;;14.32;5.78;;;6.50;99.90;;;;;;5042965;28;20040;-60
2022/11/27 06:14:34;;;;;;;12.35;5.65;;;6.50;99.90;;;;;;5043587;28;20091;-60
2022/11/27 06:17:01;;;;;;;13.50;5.18;;;6.40;99.90;;;;;;5039991;28;20072;-61
2022/11/27 06:19:27;;;;;;;10.98;5.15;;;6.50;99.90;;;;;;5026890;28;20033;-61
2022/11/27 06:21:53;;;;;;;11.55;4.72;;;6.50;99.90;;;;;;5043862;28;20041;-61
2022/11/27 06:24:19;;;;;;;8.90;4.72;;;6.50;99.90;;;;;;5044598;28;20530;-60
2022/11/27 06:26:44;;;;;;;15.57;5.68;;;6.50;99.90;;;;;;5041588;28;20128;-59
2022/11/27 06:29:10;;;;;;;16.25;5.15;;;6.50;99.90;;;;;;5043421;28;20037;-60
2022/11/27 06:31:36;;;;;;;13.07;5.07;;;6.50;99.90;;;;;;5042506;28;20044;-60
2022/11/27 06:34:03;;;;;;;12.35;4.95;;;6.50;99.90;;;;;;5032306;28;20041;-60
2022/11/27 06:36:35;;;;;;;14.68;5.50;;;6.60;99.90;;;;;;5044394;28;20495;-61
2022/11/27 06:39:02;;;;;;;12.02;6.78;;;6.50;99.90;;;;;;5024228;28;20037;-59
2022/11/27 06:41:29;;;;;;;12.55;5.05;;;6.50;99.90;;;;;;5027756;28;20041;-62
2022/11/27 06:43:57;;;;;;;11.88;5.10;;;6.50;99.90;;;;;;5043055;28;20037;-61
2022/11/27 06:46:23;;;;;;;16.92;5.03;;;6.50;99.90;;;;;;5045046;28;20028;-59
2022/11/27 06:48:51;;;;;;;8.27;4.25;;;6.50;99.90;;;;;;5028598;28;20041;-62
2022/11/27 06:51:20;;;;;;;12.30;5.40;;;6.50;99.90;;;;;;5026776;28;20365;-63
2022/11/27 06:53:45;;;;;;;9.00;4.00;;;6.50;99.90;;;;;;5028103;28;20102;-62
2022/11/27 06:56:13;;;;;;;12.07;4.53;;;6.50;99.90;;;;;;5033948;28;20049;-61
2022/11/27 06:58:40;;;;;;;10.10;4.30;;;6.50;99.90;;;;;;5033035;28;20047;-63
2022/11/27 07:01:08;;;;;;;10.02;4.38;;;6.60;99.90;;;;;;5037480;28;20500;-61
2022/11/27 07:03:34;;;;;;;12.95;4.00;;;6.50;99.90;;;;;;5034419;28;20032;-60
2022/11/27 07:06:02;;;;;;;11.65;4.50;;;6.50;99.90;;;;;;5037746;28;20032;-60
2022/11/27 07:08:28;;;;;;;13.13;4.47;;;6.50;99.90;;;;;;5036734;28;20034;-61
2022/11/27 07:10:59;;;;;;;11.40;4.18;;;6.50;99.90;;;;;;5023321;28;20044;-60
2022/11/27 07:13:25;;;;;;;11.95;5.03;;;6.60;99.90;;;;;;5041217;28;20048;-61
2022/11/27 07:15:51;;;;;;;10.80;4.72;;;6.60;99.90;;;;;;5038965;28;20052;-59
2022/11/27 07:18:16;;;;;;;9.52;4.57;;;6.50;99.90;;;;;;5028958;28;20045;-60
2022/11/27 07:20:42;;;;;;;16.60;4.10;;;6.60;99.90;;;;;;5029487;28;20073;-58
2022/11/27 07:23:08;;;;;;;13.60;4.32;;;6.60;99.90;;;;;;5031627;28;20484;-60
2022/11/27 07:25:36;;;;;;;11.70;4.75;;;6.60;99.90;;;;;;5028384;28;20090;-59
2022/11/27 07:28:02;;;;;;;12.82;4.75;;;6.60;99.90;;;;;;5040478;28;20139;-63
2022/11/27 07:30:27;;;;;;;10.98;4.57;;;6.60;99.90;;;;;;5038311;28;20218;-61
2022/11/27 07:32:53;;;;;;;10.00;4.57;;;6.50;99.90;;;;;;5036335;28;20075;-58
2022/11/27 07:35:19;;;;;;;9.13;3.90;;;6.60;99.90;;;;;;5040467;28;20827;-60
2022/11/27 07:37:44;;;;;;;12.32;4.78;;;6.60;99.90;;;;;;5040803;28;20037;-62
2022/11/27 07:40:10;;;;;;;13.00;4.75;;;6.60;99.90;;;;;;5036230;28;20123;-60
2022/11/27 07:42:36;;;;;;;12.77;6.03;;;6.60;99.90;;;;;;5035217;28;20044;-59
2022/11/27 07:45:02;;;;;;;11.38;5.05;;;6.60;99.90;;;;;;5052245;28;20256;-55
2022/11/27 07:47:28;;;;;;;8.00;4.80;;;6.60;99.90;;;;;;5042944;28;20037;-58
2022/11/27 07:49:57;;;;;;;9.63;4.10;;;6.60;99.90;;;;;;5040120;28;20090;-59
2022/11/27 07:52:22;;;;;;;9.40;4.20;;;6.60;99.90;;;;;;5039404;28;20053;-62
2022/11/27 07:54:48;;;;;;;10.80;4.15;;;6.60;99.90;;;;;;5035268;28;20048;-60
2022/11/27 07:57:14;;;;;;;11.90;4.32;;;6.60;99.90;;;;;;5038845;28;20036;-59
2022/11/27 07:59:39;;;;;;;12.63;4.28;;;6.60;99.90;;;;;;5033065;28;20034;-63
2022/11/27 08:02:05;;;;;;;10.07;4.03;;;6.60;99.90;;;;;;5030117;28;20392;-61
2022/11/27 08:04:31;;;;;;;9.90;4.30;;;6.60;99.90;;;;;;5038529;28;20070;-57
2022/11/27 08:06:57;;;;;;;13.82;4.65;;;6.60;99.90;;;;;;5060555;22;20131;-61
2022/11/27 08:09:23;;;;;;;8.80;4.10;;;6.70;99.90;;;;;;5040236;28;20052;-60
2022/11/27 08:11:49;;;;;;;15.38;5.50;;;6.60;99.90;;;;;;5053730;28;20048;-60
2022/11/27 08:14:15;;;;;;;11.05;4.90;;;6.70;99.90;;;;;;5043408;28;20089;-62
2022/11/27 08:16:41;;;;;;;10.65;4.60;;;6.70;99.90;;;;;;5055616;28;20055;-61
2022/11/27 08:19:06;;;;;;;14.93;5.28;;;6.70;99.90;;;;;;5063047;28;20033;-62
2022/11/27 08:21:32;;;;;;;10.73;3.92;;;6.70;99.90;;;;;;5068334;28;20099;-64
2022/11/27 08:23:58;;;;;;;10.32;4.65;;;6.70;99.90;;;;;;5067891;28;20119;-61
2022/11/27 08:26:26;;;;;;;8.73;4.20;;;6.70;99.90;;;;;;5061503;28;20133;-63
2022/11/27 08:28:52;;;;;;;8.90;4.03;;;6.70;99.90;;;;;;5037808;28;20048;-62
2022/11/27 08:31:19;;;;;;;10.00;4.38;;;6.70;99.90;;;;;;5061930;28;20040;-61
2022/11/27 08:33:45;;;;;;;11.88;4.57;;;6.70;99.90;;;;;;5059989;28;20052;-64
2022/11/27 08:36:11;;;;;;;13.15;5.07;;;6.70;99.90;;;;;;5060942;28;20700;-61
2022/11/27 08:38:37;;;;;;;9.65;4.30;;;6.70;99.90;;;;;;5059561;28;20039;-61
2022/11/27 08:41:04;;;;;;;12.40;4.53;;;6.70;99.90;;;;;;5062828;28;20391;-62
2022/11/27 08:43:31;;;;;;;12.13;4.57;;;6.70;99.90;;;;;;5065237;28;20041;-63
2022/11/27 08:45:57;;;;;;;13.10;5.50;;;6.70;99.90;;;;;;5062946;28;20064;-62
2022/11/27 08:48:23;;;;;;;10.82;5.15;;;6.70;99.90;;;;;;5061930;28;20101;-62
2022/11/27 08:50:50;;;;;;;12.00;4.93;;;6.70;99.90;;;;;;5062624;28;20055;-62
2022/11/27 08:53:17;;;;;;;12.45;5.75;;;6.70;99.90;;;;;;5060586;28;20067;-61
2022/11/27 08:55:43;;;;;;;12.32;5.72;;;6.70;99.90;;;;;;5065153;28;20048;-66
2022/11/27 08:58:09;;;;;;;11.18;5.38;;;6.70;99.90;;;;;;5063002;28;20218;-63
2022/11/27 09:00:36;;;;;;;12.77;6.93;;;6.70;99.90;;;;;;5064312;28;20044;-63
2022/11/27 09:03:03;;;;;;;13.38;4.72;;;6.70;99.90;;;;;;5044354;28;20049;-63
2022/11/27 09:05:29;;;;;;;9.77;4.85;;;6.70;99.90;;;;;;5063860;28;20186;-64
2022/11/27 09:07:55;;;;;;;16.33;5.40;;;6.70;99.90;;;;;;5070698;28;20580;-62
2022/11/27 09:10:21;;;;;;;12.88;5.10;;;6.70;99.90;;;;;;5064972;28;20052;-62
2022/11/27 09:12:50;;;;;;;12.43;5.50;;;6.70;99.90;;;;;;5068794;28;20406;-63
2022/11/27 09:15:16;;;;;;;12.77;6.65;;;6.70;99.90;;;;;;5030376;28;20042;-63
2022/11/27 09:17:43;;;;;;;13.00;5.28;;;6.70;99.90;;;;;;5080961;28;20391;-62
2022/11/27 09:20:09;;;;;;;11.55;5.68;;;6.70;99.90;;;;;;5040568;28;20059;-63
2022/11/27 09:22:35;;;;;;;12.50;6.05;;;6.70;99.90;;;;;;5050423;28;20036;-62
2022/11/27 09:25:01;;;;;;;11.18;5.82;;;6.70;99.90;;;;;;5039715;28;20043;-62
2022/11/27 09:27:27;;;;;;;13.35;6.00;;;6.70;99.90;;;;;;5069222;28;20502;-62
2022/11/27 09:29:53;;;;;;;11.63;6.78;;;6.60;99.90;;;;;;5083590;28;20075;-63
2022/11/27 09:32:21;;;;;;;12.38;6.03;;;6.60;99.90;;;;;;5066638;28;20040;-63
2022/11/27 09:34:46;;;;;;;15.45;6.70;;;6.60;99.90;;;;;;5053230;28;20118;-63
2022/11/27 09:37:12;;;;;;;15.00;6.07;;;6.60;99.90;;;;;;5082023;28;20491;-65
2022/11/27 09:39:38;;;;;;;17.38;7.78;;;6.60;99.90;;;;;;5059693;28;20052;-62
2022/11/27 09:42:07;;;;;;;13.13;5.32;;;6.70;99.90;;;;;;5082562;28;20087;-65
2022/11/27 09:44:45;;;;;;;10.80;5.53;;;6.60;99.90;;;;;;5065787;28;20135;-63
2022/11/27 09:47:15;;;;;;;9.23;5.03;;;6.60;99.90;;;;;;5070785;28;20040;-64
2022/11/27 09:50:12;;;;;;;11.07;5.35;;;6.60;99.90;;;;;;5064887;28;20092;-63
2022/11/27 09:52:46;;;;;;;11.52;5.88;;;6.60;99.90;;;;;;5056052;28;20051;-62
2022/11/27 09:55:42;;;;;;;27.10;14.25;;;6.60;99.90;;;;;;5059869;28;20078;-64
2022/11/27 09:58:18;;;;;;;17.40;8.23;;;6.60;99.90;;;;;;5047196;28;20059;-63
2022/11/27 10:00:45;;;;;;;11.43;6.82;;;6.60;99.90;;;;;;5061176;28;20031;-62
2022/11/27 10:03:20;;;;;;;14.50;6.18;;;6.60;99.90;;;;;;5065400;28;20050;-62
2022/11/27 10:06:15;;;;;;;13.63;6.07;;;6.60;99.90;;;;;;5067240;28;20035;-61
2022/11/27 10:08:55;;;;;;;12.93;5.78;;;6.60;99.90;;;;;;5041805;28;20450;-62
2022/11/27 10:11:27;;;;;;;15.13;6.18;;;6.60;99.90;;;;;;5063154;28;20048;-62
2022/11/27 10:14:06;;;;;;;13.70;6.00;;;6.60;99.90;;;;;;5084210;28;20047;-63
2022/11/27 10:16:57;;;;;;;13.38;5.80;;;6.60;99.90;;;;;;5061948;28;20135;-62
2022/11/27 10:19:45;;;;;;;15.10;6.40;;;6.70;99.90;;;;;;5063998;28;20028;-62
2022/11/27 10:22:35;;;;;;;13.07;5.88;;;6.70;99.90;;;;;;5082962;28;20252;-62
2022/11/27 10:25:20;;;;;;;13.10;6.65;;;6.70;99.90;;;;;;5063787;28;20101;-62
2022/11/27 10:28:30;;;;;;;17.17;6.28;;;6.70;99.90;;;;;;5042923;28;20075;-61
2022/11/27 10:31:06;;;;;;;11.80;6.53;;;6.70;99.90;;;;;;5022419;28;20059;-62
2022/11/27 10:33:52;;;;;;;16.05;6.40;;;6.70;99.90;;;;;;5057620;28;20569;-64
2022/11/27 10:36:25;;;;;;;14.27;7.25;;;6.70;99.90;;;;;;5082454;28;20036;-62
2022/11/27 10:38:52;;;;;;;13.07;6.32;;;6.70;99.90;;;;;;5064511;28;20436;-62
2022/11/27 10:41:23;;;;;;;17.13;7.18;;;6.80;99.90;;;;;;5066371;28;20865;-64
2022/11/27 10:43:53;;;;;;;14.35;6.53;;;6.80;99.90;;;;;;5063810;28;20075;-63
2022/11/27 10:46:27;;;;;;;20.25;10.23;;;6.80;99.90;;;;;;5081299;28;20028;-62
2022/11/27 10:48:52;;;;;;;;;;;6.80;99.90;;;;;;5078440;28;20040;-62
2022/11/27 10:51:23;;;;;;;15.77;6.57;;;6.80;99.90;;;;;;5050378;28;19916;-63
2022/11/27 10:53:52;;;;;;;12.50;6.55;;;6.70;99.90;;;;;;5075233;28;20677;-62
2022/11/27 10:56:36;;;;;;;16.73;6.68;;;6.80;99.90;;;;;;5061172;28;20043;-63
2022/11/27 10:59:09;;;;;;;15.80;6.68;;;6.80;99.90;;;;;;5063773;28;20040;-62
2022/11/27 11:01:49;;;;;;;13.13;6.55;;;6.80;99.90;;;;;;5063767;28;20043;-62
2022/11/27 11:04:27;;;;;;;13.73;6.85;;;6.80;99.90;;;;;;5058616;28;20032;-63
2022/11/27 11:06:53;;;;;;;14.10;6.85;;;6.80;99.90;;;;;;5082606;28;20040;-62
2022/11/27 11:09:28;;;;;;;17.55;6.95;;;6.80;99.90;;;;;;5054852;28;20326;-61
2022/11/27 11:12:13;;;;;;;17.50;7.88;;;6.80;99.90;;;;;;5063391;28;20032;-63
2022/11/27 11:14:38;;;;;;;13.18;7.18;;;6.90;99.90;;;;;;5058722;28;20040;-61
2022/11/27 11:17:15;;;;;;;15.95;6.90;;;6.90;99.90;;;;;;5076225;28;20139;-62
2022/11/27 11:19:42;;;;;;;13.60;6.75;;;6.90;99.90;;;;;;5060119;28;20083;-61
2022/11/27 11:22:15;;;;;;;14.75;7.07;;;6.90;99.90;;;;;;5055648;28;20141;-61
2022/11/27 11:24:46;;;;;;;13.85;7.20;;;6.90;99.90;;;;;;5057370;28;20135;-62
2022/11/27 11:27:20;;;;;;;12.18;6.50;;;6.90;99.90;;;;;;5063743;28;20054;-61
2022/11/27 11:29:47;;;;;;;18.17;7.82;;;6.90;99.90;;;;;;5079242;28;20035;-63
2022/11/27 11:32:32;;;;;;;21.55;9.00;;;6.90;99.90;;;;;;5065550;28;20117;-62
2022/11/27 11:35:03;;;;;;;;;;;6.90;99.90;;;;;;5075223;28;20410;-61
2022/11/27 11:37:38;;;;;;;15.27;6.90;;;7.00;99.90;;;;;;5068449;28;19916;-63
2022/11/27 11:40:26;;;;;;;18.40;7.10;;;7.00;99.90;;;;;;5072379;28;20043;-61
2022/11/27 11:43:13;;;;;;;16.30;8.05;;;7.00;99.90;;;;;;5073310;28;20040;-62
2022/11/27 11:45:47;;;;;;;15.65;7.82;;;7.00;99.90;;;;;;5073764;28;20039;-61
2022/11/27 11:48:25;;;;;;;14.52;7.47;;;7.00;99.90;;;;;;5066295;28;20036;-63
2022/11/27 11:51:06;;;;;;;13.93;7.47;;;7.00;99.90;;;;;;5061533;28;20048;-61
2022/11/27 11:53:56;;;;;;;17.10;7.85;;;7.00;99.90;;;;;;5079007;28;20068;-63
2022/11/27 11:56:38;;;;;;;15.93;7.55;;;7.10;99.90;;;;;;5055093;28;20064;-61
2022/11/27 11:59:36;;;;;;;15.88;7.68;;;7.10;99.90;;;;;;5067736;28;20032;-63
2022/11/27 12:02:07;;;;;;;18.50;9.13;;;7.10;99.90;;;;;;5081851;28;20043;-62
2022/11/27 12:04:51;;;;;;;14.57;7.35;;;7.10;99.90;;;;;;5066971;28;20096;-62
2022/11/27 12:07:26;;;;;;;14.07;7.22;;;7.10;99.90;;;;;;5078556;28;20063;-62
2022/11/27 12:10:14;;;;;;;14.27;7.63;;;7.10;99.90;;;;;;5071830;28;20048;-61
2022/11/27 12:13:02;;;;;;;14.63;7.55;;;7.10;99.90;;;;;;5084771;28;20394;-62
2022/11/27 12:15:58;;;;;;;16.08;8.63;;;7.20;99.90;;;;;;5044616;28;22091;-62
2022/11/27 12:18:54;;;;;;;15.75;8.25;;;7.20;99.90;;;;;;5019285;28;20052;-62
2022/11/27 12:21:49;;;;;;;16.73;8.05;;;7.20;99.90;;;;;;5081493;28;20043;-60
2022/11/27 12:24:48;;;;;;;13.40;7.35;;;7.20;99.90;;;;;;5062511;28;20118;-63
2022/11/27 12:27:41;;;;;;;15.35;8.10;;;7.20;99.90;;;;;;5058013;28;20386;-62
2022/11/27 12:30:20;;;;;;;14.93;7.82;;;7.10;99.90;;;;;;5071811;28;20470;-62
2022/11/27 12:33:22;;;;;;;13.80;8.63;;;7.20;99.90;;;;;;5057448;28;20461;-61
2022/11/27 12:36:05;;;;;;;18.67;9.27;;;7.20;99.90;;;;;;5048865;28;20127;-63
2022/11/27 12:38:40;;;;;;;17.15;9.48;;;7.20;99.90;;;;;;5048349;28;20044;-61
2022/11/27 12:41:32;;;;;;;17.33;8.57;;;7.20;99.90;;;;;;5069559;28;20227;-61
2022/11/27 12:44:01;;;;;;;14.68;7.78;;;7.20;99.90;;;;;;5068292;28;20458;-63
2022/11/27 12:46:59;;;;;;;15.40;7.93;;;7.20;99.90;;;;;;5058722;28;20064;-62
2022/11/27 12:49:36;;;;;;;18.17;9.18;;;7.20;99.90;;;;;;5081227;28;20439;-62
2022/11/27 12:52:12;;;;;;;19.00;9.80;;;7.20;99.90;;;;;;5042826;28;21239;-61
2022/11/27 12:55:00;;;;;;;19.02;9.07;;;7.20;99.90;;;;;;5082005;28;20054;-61
2022/11/27 12:57:57;;;;;;;15.57;6.82;;;7.30;99.90;;;;;;5085815;28;20032;-63
2022/11/27 13:00:25;;;;;;;16.20;7.70;;;7.20;99.90;;;;;;5058023;28;20080;-61
2022/11/27 13:03:07;;;;;;;14.98;7.50;;;7.30;99.90;;;;;;5057295;28;20036;-63
2022/11/27 13:05:58;;;;;;;16.02;8.15;;;7.30;99.90;;;;;;5049612;28;20029;-62
2022/11/27 13:08:49;;;;;;;14.20;8.30;;;7.30;99.90;;;;;;5056330;28;20051;-62
2022/11/27 13:11:17;;;;;;;14.25;7.53;;;7.30;99.90;;;;;;5067499;28;20043;-62